Terminal Aerodrome Forecast
Issued by NWS Shreveport, LA

Current Version | Previous Version | Text Only | Print | Product List | Glossary On
Versions: 1 2 3 4 5 6 7 8 9 10 11 12 13 14 15
000
FTUS44 KSHV 181720
TAFSHV
TAF
KSHV 181720Z 1818/1918 25009KT P6SM BKN050 BKN150 BKN250
     FM190000 21003KT P6SM SCT250
     FM191200 24005KT P6SM SCT060 SCT150 SCT250=

USA.gov is the U.S. government's official web portal to all federal, state and local government web resources and services.